KCVG/CVG METAR and TAF weather

Enter ICAO airport designator
Station Type Date Time Source
KCVG METAR 2021/05/10 00:52 UTC NOAA

KCVG 100052Z 36010KT 10SM OVC011 07/04 A2994 RMK AO2 SLP138 T00720039 $


Station Type Date Time Source
KCVG Decoded METAR 2021/05/10 00:52 UTC NOAA

CINCINNATI/NORTHERN KY INTERNATIONAL , KY, United States (KCVG) 39-03N 084-40W 269M
May 09, 2021 - 08:52 PM EDT / 2021.05.10 0052 UTC
Wind: from the N (360 degrees) at 12 MPH (10 KT):0
Visibility: 10 mile(s):0
Sky conditions: overcast
Temperature: 45.0 F (7.2 C)
Dew Point: 39.0 F (3.9 C)
Relative Humidity: 79%
Pressure (altimeter): 29.94 in. Hg (1013 hPa)
ob: KCVG 100052Z 36010KT 10SM OVC011 07/04 A2994 RMK AO2 SLP138 T00720039
cycle: 1

Station Type Date Time Source
KCVG TAF 2021/05/09 21:58 UTC NOAA

TAF
AMD KCVG 092056Z 0921/1024 31014G24KT P6SM VCSH OVC012
FM092200 35012G18KT P6SM OVC008
FM100600 02009KT P6SM BKN010
FM100800 01009KT P6SM SCT012
FM101200 03006KT P6SM FEW250
FM102000 35007KT P6SM BKN070

Example: see airport list